Time;durP1;ratioP1;P1;durP2;ratioP2;P2;SDS_P1;SDS_P2;PMS_P1;PMS_P2;Temp;Humidity;BMP_temperature;BMP_pressure;BME280_temperature;BME280_humidity;BME280_pressure;Samples;Min_cycle;Max_cycle;Signal;HPM_P1;HPM_P2
2023/03/08 00:01:24;;;;;;;8.80;6.80;;;;;;;;;;5052907;28;20188;-66
2023/03/08 00:03:54;;;;;;;11.50;8.13;;;;;;;;;;5052564;28;20196;-66
2023/03/08 00:06:22;;;;;;;14.15;9.45;;;;;;;;;;5052380;28;20229;-66
2023/03/08 00:08:50;;;;;;;16.35;9.80;;;;;;;;;;5052228;28;20195;-66
2023/03/08 00:11:18;;;;;;;12.32;8.60;;;;;;;;;;5052869;28;20285;-66
2023/03/08 00:13:45;;;;;;;15.40;9.60;;;;;;;;;;5052389;28;20196;-66
2023/03/08 00:16:13;;;;;;;14.68;9.23;;;;;;;;;;5052107;28;20208;-66
2023/03/08 00:18:40;;;;;;;15.80;9.52;;;;;;;;;;5052848;28;20216;-66
2023/03/08 00:21:08;;;;;;;18.02;9.35;;;;;;;;;;5052069;28;20193;-67
2023/03/08 00:23:36;;;;;;;14.55;10.52;;;;;;;;;;5052539;28;20196;-66
2023/03/08 00:26:05;;;;;;;13.40;9.20;;;;;;;;;;5052941;28;20192;-67
2023/03/08 00:28:32;;;;;;;20.60;9.30;;;;;;;;;;5052120;28;20202;-67
2023/03/08 00:31:00;;;;;;;12.55;9.90;;;;;;;;;;5052481;28;20189;-66
2023/03/08 00:33:27;;;;;;;15.88;9.75;;;;;;;;;;5051989;28;20210;-67
2023/03/08 00:35:55;;;;;;;11.93;10.38;;;;;;;;;;5052385;28;20189;-66
2023/03/08 00:38:23;;;;;;;11.38;9.15;;;;;;;;;;5052243;28;20305;-67
2023/03/08 00:40:50;;;;;;;15.07;10.65;;;;;;;;;;5052847;28;20192;-67
2023/03/08 00:43:18;;;;;;;17.10;11.63;;;;;;;;;;5052252;28;20193;-66
2023/03/08 00:45:45;;;;;;;17.13;10.48;;;;;;;;;;5052295;28;20202;-66
2023/03/08 00:48:13;;;;;;;14.75;10.98;;;;;;;;;;5055309;28;20224;-67
2023/03/08 00:50:40;;;;;;;13.27;10.65;;;;;;;;;;5056915;28;20530;-66
2023/03/08 00:53:07;;;;;;;17.05;10.27;;;;;;;;;;5056029;28;20221;-66
2023/03/08 00:55:34;;;;;;;16.05;11.65;;;;;;;;;;5055642;28;20651;-66
2023/03/08 00:58:01;;;;;;;14.68;11.63;;;;;;;;;;5055714;28;20202;-67
2023/03/08 01:00:30;;;;;;;14.80;10.57;;;;;;;;;;5056562;28;20249;-66
2023/03/08 01:02:58;;;;;;;15.52;11.02;;;;;;;;;;5055394;28;20199;-66
2023/03/08 01:05:25;;;;;;;15.80;11.20;;;;;;;;;;5055478;28;20193;-66
2023/03/08 01:07:52;;;;;;;16.48;11.10;;;;;;;;;;5056132;28;20228;-66
2023/03/08 01:10:19;;;;;;;16.33;12.15;;;;;;;;;;5055376;28;20200;-66
2023/03/08 01:12:47;;;;;;;16.10;10.73;;;;;;;;;;5055490;28;20191;-67
2023/03/08 01:15:14;;;;;;;14.98;10.60;;;;;;;;;;5055506;28;20193;-66
2023/03/08 01:17:42;;;;;;;13.65;9.27;;;;;;;;;;5055366;28;20193;-66
2023/03/08 01:20:10;;;;;;;14.50;10.70;;;;;;;;;;5055408;28;20212;-66
2023/03/08 01:22:37;;;;;;;15.60;12.07;;;;;;;;;;5055000;28;20203;-67
2023/03/08 01:25:05;;;;;;;17.83;12.57;;;;;;;;;;5055130;28;20192;-66
2023/03/08 01:27:32;;;;;;;16.13;11.23;;;;;;;;;;5055149;28;20545;-67
2023/03/08 01:29:59;;;;;;;16.65;11.73;;;;;;;;;;5055004;28;20211;-66
2023/03/08 01:32:27;;;;;;;16.42;11.95;;;;;;;;;;5054898;28;20194;-67
2023/03/08 01:34:55;;;;;;;19.60;13.40;;;;;;;;;;5055288;28;20192;-66
2023/03/08 01:37:22;;;;;;;16.52;13.10;;;;;;;;;;5055116;28;20201;-67
2023/03/08 01:39:49;;;;;;;15.52;10.95;;;;;;;;;;5055137;28;20507;-67
2023/03/08 01:42:17;;;;;;;17.63;11.52;;;;;;;;;;5054673;28;20642;-67
2023/03/08 01:44:51;;;;;;;14.77;9.70;;;;;;;;;;5054606;28;20661;-66
2023/03/08 01:47:19;;;;;;;16.13;9.60;;;;;;;;;;5054629;28;20191;-67
2023/03/08 01:49:47;;;;;;;14.65;9.27;;;;;;;;;;5054570;28;20246;-66
2023/03/08 01:52:16;;;;;;;17.20;10.75;;;;;;;;;;5054857;28;20188;-66
2023/03/08 01:54:45;;;;;;;15.85;11.43;;;;;;;;;;5054558;28;20196;-66
2023/03/08 01:57:16;;;;;;;16.55;10.40;;;;;;;;;;5054268;28;20200;-67
2023/03/08 01:59:43;;;;;;;18.92;11.85;;;;;;;;;;5054678;28;20550;-67
2023/03/08 02:02:10;;;;;;;19.88;13.00;;;;;;;;;;5055144;28;20247;-66
2023/03/08 02:04:38;;;;;;;18.30;12.43;;;;;;;;;;5054301;28;20200;-67
2023/03/08 02:07:05;;;;;;;16.92;12.52;;;;;;;;;;5054927;28;20221;-66
2023/03/08 02:09:34;;;;;;;14.68;11.38;;;;;;;;;;5054634;28;20199;-66
2023/03/08 02:12:03;;;;;;;16.15;11.88;;;;;;;;;;5054251;28;20227;-66
2023/03/08 02:14:30;;;;;;;19.27;11.90;;;;;;;;;;5054590;28;20278;-66
2023/03/08 02:16:57;;;;;;;20.60;12.00;;;;;;;;;;5054130;28;20668;-66
2023/03/08 02:19:28;;;;;;;18.70;13.20;;;;;;;;;;5053997;28;20219;-67
2023/03/08 02:21:55;;;;;;;20.08;12.90;;;;;;;;;;5055190;28;20195;-66
2023/03/08 02:24:25;;;;;;;18.30;12.45;;;;;;;;;;5054282;28;20192;-67
2023/03/08 02:26:56;;;;;;;21.00;13.10;;;;;;;;;;5054412;28;20206;-67
2023/03/08 02:29:23;;;;;;;22.30;13.95;;;;;;;;;;5053955;28;20219;-67
2023/03/08 02:31:51;;;;;;;19.67;12.70;;;;;;;;;;5053938;28;20295;-66
2023/03/08 02:34:18;;;;;;;22.27;12.35;;;;;;;;;;5053750;28;20200;-67
2023/03/08 02:36:45;;;;;;;19.52;13.07;;;;;;;;;;5053844;28;20204;-67
2023/03/08 02:39:12;;;;;;;20.65;12.85;;;;;;;;;;5054027;28;20231;-67
2023/03/08 02:41:41;;;;;;;24.55;15.32;;;;;;;;;;5054332;28;20196;-67
2023/03/08 02:44:08;;;;;;;20.05;13.85;;;;;;;;;;5053903;28;20200;-67
2023/03/08 02:46:35;;;;;;;21.90;16.52;;;;;;;;;;5053921;28;20319;-67
2023/03/08 02:49:02;;;;;;;22.98;13.02;;;;;;;;;;5054068;28;20192;-67
2023/03/08 02:51:29;;;;;;;20.55;13.40;;;;;;;;;;5054084;28;20192;-67
2023/03/08 02:53:57;;;;;;;27.17;14.52;;;;;;;;;;5053723;28;20198;-67
2023/03/08 02:56:24;;;;;;;22.77;14.23;;;;;;;;;;5054136;28;20192;-67
2023/03/08 02:58:53;;;;;;;22.77;14.23;;;;;;;;;;5053341;28;20225;-67
2023/03/08 03:01:20;;;;;;;22.75;15.07;;;;;;;;;;5053627;28;20218;-67
2023/03/08 03:03:47;;;;;;;24.77;16.55;;;;;;;;;;5053897;28;20188;-67
2023/03/08 03:06:15;;;;;;;25.08;16.00;;;;;;;;;;5053827;28;20217;-67
2023/03/08 03:08:43;;;;;;;25.17;17.42;;;;;;;;;;5053392;28;20193;-67
2023/03/08 03:11:13;;;;;;;25.15;16.20;;;;;;;;;;5052905;28;20192;-67
2023/03/08 03:13:41;;;;;;;27.92;15.85;;;;;;;;;;5053074;28;20207;-67
2023/03/08 03:16:10;;;;;;;27.27;15.75;;;;;;;;;;5053008;28;20207;-67
2023/03/08 03:18:37;;;;;;;22.60;15.20;;;;;;;;;;5053017;28;20212;-67
2023/03/08 03:21:06;;;;;;;20.65;14.45;;;;;;;;;;5053340;28;20213;-67
2023/03/08 03:23:33;;;;;;;28.17;16.92;;;;;;;;;;5052843;28;20278;-67
2023/03/08 03:26:04;;;;;;;28.60;15.48;;;;;;;;;;5052912;28;20271;-67
2023/03/08 03:28:31;;;;;;;31.98;16.60;;;;;;;;;;5053330;28;20180;-68
2023/03/08 03:30:58;;;;;;;22.80;15.20;;;;;;;;;;5053405;28;20217;-67
2023/03/08 03:33:27;;;;;;;24.05;14.68;;;;;;;;;;5053144;28;20216;-66
2023/03/08 03:35:54;;;;;;;26.88;16.17;;;;;;;;;;5052935;28;20522;-66
2023/03/08 03:38:21;;;;;;;22.13;14.65;;;;;;;;;;5053072;28;20192;-67
2023/03/08 03:40:48;;;;;;;23.95;14.55;;;;;;;;;;5052549;28;20220;-67
2023/03/08 03:43:15;;;;;;;28.00;14.55;;;;;;;;;;5052792;28;20189;-67
2023/03/08 03:45:43;;;;;;;27.67;13.68;;;;;;;;;;5052932;28;20189;-67
2023/03/08 03:48:10;;;;;;;33.17;15.57;;;;;;;;;;5052891;28;20193;-67
2023/03/08 03:50:38;;;;;;;25.15;14.48;;;;;;;;;;5052933;28;20201;-67
2023/03/08 03:53:06;;;;;;;28.40;15.55;;;;;;;;;;5052775;28;20192;-66
2023/03/08 03:55:33;;;;;;;21.08;12.85;;;;;;;;;;5052869;28;20193;-67
2023/03/08 03:58:00;;;;;;;22.67;14.45;;;;;;;;;;5052776;28;20267;-67
2023/03/08 04:00:27;;;;;;;25.67;14.40;;;;;;;;;;5052664;28;20526;-67
2023/03/08 04:02:54;;;;;;;20.73;13.20;;;;;;;;;;5053107;28;20191;-67
2023/03/08 04:05:22;;;;;;;28.20;15.25;;;;;;;;;;5052467;28;20192;-67
2023/03/08 04:07:50;;;;;;;23.02;13.52;;;;;;;;;;5053029;28;20685;-66
2023/03/08 04:10:18;;;;;;;23.88;12.90;;;;;;;;;;5052586;28;20197;-67
2023/03/08 04:12:48;;;;;;;24.63;14.25;;;;;;;;;;5052613;28;20199;-67
2023/03/08 04:15:15;;;;;;;17.10;12.07;;;;;;;;;;5052903;28;20200;-67
2023/03/08 04:17:43;;;;;;;20.92;14.00;;;;;;;;;;5052604;28;20192;-67
2023/03/08 04:20:12;;;;;;;25.48;14.07;;;;;;;;;;5052405;28;20215;-66
2023/03/08 04:22:40;;;;;;;24.83;14.95;;;;;;;;;;5056636;28;20254;-67
2023/03/08 04:25:09;;;;;;;22.13;13.50;;;;;;;;;;5056568;28;20192;-67
2023/03/08 04:27:36;;;;;;;24.00;14.70;;;;;;;;;;5056618;28;20230;-69
2023/03/08 04:30:03;;;;;;;27.77;15.48;;;;;;;;;;5051970;28;20197;-65
2023/03/08 04:32:31;;;;;;;24.63;14.05;;;;;;;;;;5035863;28;20205;-67
2023/03/08 04:34:58;;;;;;;30.50;16.38;;;;;;;;;;5035584;28;20196;-67
2023/03/08 04:37:26;;;;;;;29.50;16.45;;;;;;;;;;5036054;28;20190;-66
2023/03/08 04:39:53;;;;;;;30.15;18.35;;;;;;;;;;5036014;28;20213;-67
2023/03/08 04:42:22;;;;;;;25.83;15.35;;;;;;;;;;5035952;28;20193;-66
2023/03/08 04:44:49;;;;;;;25.00;14.88;;;;;;;;;;5041035;28;20195;-67
2023/03/08 04:47:16;;;;;;;30.77;16.85;;;;;;;;;;5055944;28;20201;-67
2023/03/08 04:49:43;;;;;;;28.08;16.13;;;;;;;;;;5055525;28;20207;-67
2023/03/08 04:52:11;;;;;;;29.00;14.65;;;;;;;;;;5055211;28;20215;-67
2023/03/08 04:54:38;;;;;;;30.15;16.27;;;;;;;;;;5055324;28;20193;-67
2023/03/08 04:57:05;;;;;;;28.52;17.05;;;;;;;;;;5055101;28;20193;-67
2023/03/08 04:59:34;;;;;;;25.15;17.33;;;;;;;;;;5055339;28;20212;-67
2023/03/08 05:02:01;;;;;;;33.45;17.75;;;;;;;;;;5055751;28;20193;-67
2023/03/08 05:04:28;;;;;;;37.83;18.35;;;;;;;;;;5055535;28;20197;-67
2023/03/08 05:06:55;;;;;;;28.33;17.17;;;;;;;;;;5055165;28;20226;-67
2023/03/08 05:09:22;;;;;;;29.55;18.63;;;;;;;;;;5055681;28;20192;-67
2023/03/08 05:11:49;;;;;;;32.78;20.23;;;;;;;;;;5055414;28;20197;-67
2023/03/08 05:14:17;;;;;;;29.38;18.92;;;;;;;;;;5055626;28;20287;-67
2023/03/08 05:16:45;;;;;;;39.70;19.25;;;;;;;;;;5055430;28;20196;-67
2023/03/08 05:19:12;;;;;;;32.30;19.33;;;;;;;;;;5055531;28;20488;-67
2023/03/08 05:21:40;;;;;;;31.10;17.55;;;;;;;;;;5055494;28;20216;-67
2023/03/08 05:24:07;;;;;;;32.83;18.25;;;;;;;;;;5054837;28;20227;-67
2023/03/08 05:26:34;;;;;;;34.72;19.60;;;;;;;;;;5054693;28;20500;-67
2023/03/08 05:29:02;;;;;;;35.80;18.20;;;;;;;;;;5054913;28;20208;-67
2023/03/08 05:31:29;;;;;;;36.47;19.52;;;;;;;;;;5055185;28;20289;-67
2023/03/08 05:33:58;;;;;;;39.05;20.50;;;;;;;;;;5054374;28;20193;-71
2023/03/08 05:36:25;;;;;;;34.22;18.85;;;;;;;;;;5054752;28;20187;-70
2023/03/08 05:38:53;;;;;;;36.63;22.95;;;;;;;;;;5055381;28;20197;-73
2023/03/08 05:41:20;;;;;;;35.78;20.17;;;;;;;;;;5055288;28;20269;-67
2023/03/08 05:43:48;;;;;;;40.65;20.88;;;;;;;;;;5054348;28;20207;-67
2023/03/08 05:46:16;;;;;;;38.25;20.63;;;;;;;;;;5054547;28;20189;-67
2023/03/08 05:48:43;;;;;;;35.63;19.67;;;;;;;;;;5054529;28;20196;-67
2023/03/08 05:51:12;;;;;;;40.10;20.05;;;;;;;;;;5054953;28;20506;-67
2023/03/08 05:53:40;;;;;;;42.15;21.98;;;;;;;;;;5054377;28;20205;-67
2023/03/08 05:56:08;;;;;;;40.10;20.50;;;;;;;;;;5054793;28;20188;-67
2023/03/08 05:58:35;;;;;;;53.83;27.30;;;;;;;;;;5054382;28;20193;-67
2023/03/08 06:01:08;;;;;;;49.03;23.35;;;;;;;;;;5054516;28;20223;-67
2023/03/08 06:03:36;;;;;;;39.33;21.10;;;;;;;;;;5054725;28;20176;-67
2023/03/08 06:06:03;;;;;;;41.00;22.80;;;;;;;;;;5053821;28;20220;-67
2023/03/08 06:08:31;;;;;;;47.90;23.75;;;;;;;;;;5054620;28;20575;-67
2023/03/08 06:10:59;;;;;;;43.97;22.13;;;;;;;;;;5054187;28;20666;-67
2023/03/08 06:13:26;;;;;;;40.28;23.08;;;;;;;;;;5054331;28;20198;-66
2023/03/08 06:15:54;;;;;;;47.28;25.85;;;;;;;;;;5054233;28;20198;-67
2023/03/08 06:18:22;;;;;;;44.08;22.45;;;;;;;;;;5054290;28;20196;-67
2023/03/08 06:20:56;;;;;;;45.17;23.95;;;;;;;;;;5054149;28;20220;-66
2023/03/08 06:23:23;;;;;;;49.20;22.80;;;;;;;;;;5054489;28;20180;-67
2023/03/08 06:25:51;;;;;;;41.28;22.17;;;;;;;;;;5053948;28;20193;-67
2023/03/08 06:28:19;;;;;;;47.38;24.70;;;;;;;;;;5053800;28;20204;-67
2023/03/08 06:30:48;;;;;;;42.00;24.15;;;;;;;;;;5054469;28;20287;-67
2023/03/08 06:33:15;;;;;;;44.53;24.10;;;;;;;;;;5054041;28;20547;-67
2023/03/08 06:35:43;;;;;;;51.13;24.73;;;;;;;;;;5054004;28;20251;-66
2023/03/08 06:38:10;;;;;;;42.17;23.88;;;;;;;;;;5054017;28;20197;-67
2023/03/08 06:40:37;;;;;;;43.42;25.42;;;;;;;;;;5053444;28;20219;-67
2023/03/08 06:43:06;;;;;;;42.80;25.65;;;;;;;;;;5053442;28;20204;-67
2023/03/08 06:45:33;;;;;;;55.13;33.53;;;;;;;;;;5052342;28;20204;-67
2023/03/08 06:48:01;;;;;;;48.00;26.65;;;;;;;;;;5053371;28;20192;-67
2023/03/08 06:50:28;;;;;;;45.70;24.90;;;;;;;;;;5053571;28;20261;-67
2023/03/08 06:52:55;;;;;;;48.97;28.17;;;;;;;;;;5053785;28;20542;-67
2023/03/08 06:55:23;;;;;;;45.70;26.42;;;;;;;;;;5053364;28;20224;-67
2023/03/08 06:57:50;;;;;;;44.22;26.98;;;;;;;;;;5053549;28;20197;-67
2023/03/08 07:00:19;;;;;;;52.78;27.52;;;;;;;;;;5053081;28;20209;-67
2023/03/08 07:02:48;;;;;;;44.65;26.05;;;;;;;;;;5053543;28;20200;-67
2023/03/08 07:05:23;;;;;;;47.60;28.15;;;;;;;;;;5151474;27;20570;-68
2023/03/08 07:07:51;;;;;;;51.05;29.33;;;;;;;;;;5151646;27;20226;-68
2023/03/08 07:10:19;;;;;;;43.40;25.02;;;;;;;;;;5151749;27;20246;-68
2023/03/08 07:12:47;;;;;;;46.58;27.15;;;;;;;;;;5151301;27;20242;-67
2023/03/08 07:15:15;;;;;;;48.13;27.73;;;;;;;;;;5151875;27;20202;-67
2023/03/08 07:17:42;;;;;;;48.67;26.38;;;;;;;;;;5151656;27;20189;-67
2023/03/08 07:20:10;;;;;;;49.88;27.65;;;;;;;;;;5151572;27;20239;-68
2023/03/08 07:22:40;;;;;;;46.67;27.10;;;;;;;;;;5151352;27;20190;-68
2023/03/08 07:25:08;;;;;;;44.50;26.88;;;;;;;;;;5151216;27;20204;-68
2023/03/08 07:27:35;;;;;;;48.65;27.27;;;;;;;;;;5151177;27;20195;-68
2023/03/08 07:30:02;;;;;;;46.25;28.02;;;;;;;;;;5151582;27;20272;-68
2023/03/08 07:32:30;;;;;;;48.47;28.27;;;;;;;;;;5151239;27;20233;-69
2023/03/08 07:34:57;;;;;;;44.22;26.92;;;;;;;;;;5151676;27;20206;-67
2023/03/08 07:37:24;;;;;;;47.35;27.35;;;;;;;;;;5151228;27;20200;-67
2023/03/08 07:39:53;;;;;;;53.95;27.10;;;;;;;;;;5151226;27;20281;-67
2023/03/08 07:42:20;;;;;;;46.67;28.77;;;;;;;;;;5151022;27;20201;-68
2023/03/08 07:44:47;;;;;;;47.95;30.60;;;;;;;;;;5150404;27;20212;-67
2023/03/08 07:47:14;;;;;;;54.80;27.35;;;;;;;;;;5150843;27;20227;-68
2023/03/08 07:49:41;;;;;;;49.28;28.08;;;;;;;;;;5151126;27;20276;-67
2023/03/08 07:52:09;;;;;;;48.72;28.98;;;;;;;;;;5151036;27;20218;-68
2023/03/08 07:54:36;;;;;;;48.63;28.95;;;;;;;;;;5150832;27;20198;-68
2023/03/08 07:57:05;;;;;;;45.05;27.15;;;;;;;;;;5150657;27;20191;-68
2023/03/08 07:59:32;;;;;;;47.45;27.80;;;;;;;;;;5150729;27;20197;-68
2023/03/08 08:01:59;;;;;;;47.47;28.77;;;;;;;;;;5150700;27;20189;-67
2023/03/08 08:04:27;;;;;;;48.35;27.90;;;;;;;;;;5149704;27;20585;-68
2023/03/08 08:06:54;;;;;;;46.10;27.27;;;;;;;;;;5150222;27;20667;-67
2023/03/08 08:09:21;;;;;;;44.80;26.60;;;;;;;;;;5150396;27;20264;-67
2023/03/08 08:11:48;;;;;;;39.60;25.65;;;;;;;;;;5150418;27;20277;-68
2023/03/08 08:14:17;;;;;;;44.88;25.73;;;;;;;;;;5150316;27;20198;-69
2023/03/08 08:16:44;;;;;;;39.45;25.30;;;;;;;;;;5137284;27;20191;-67
2023/03/08 08:19:13;;;;;;;45.22;25.02;;;;;;;;;;5136483;27;20201;-68
2023/03/08 08:21:40;;;;;;;42.55;24.35;;;;;;;;;;5136742;27;20195;-68
2023/03/08 08:24:08;;;;;;;39.55;24.83;;;;;;;;;;5136274;27;20743;-68
2023/03/08 08:26:35;;;;;;;42.33;23.98;;;;;;;;;;5136142;27;20251;-68
2023/03/08 08:29:03;;;;;;;40.15;25.23;;;;;;;;;;5136447;27;20277;-68
2023/03/08 08:31:31;;;;;;;36.65;22.45;;;;;;;;;;5136751;27;20191;-68
2023/03/08 08:33:59;;;;;;;39.78;22.10;;;;;;;;;;5135930;27;20199;-68
2023/03/08 08:36:26;;;;;;;36.75;22.70;;;;;;;;;;5136313;27;20283;-68
2023/03/08 08:38:53;;;;;;;33.15;21.60;;;;;;;;;;5135811;27;20197;-68
2023/03/08 08:41:21;;;;;;;39.20;22.17;;;;;;;;;;5136256;27;20278;-68
2023/03/08 08:43:49;;;;;;;44.85;25.23;;;;;;;;;;5135618;27;20204;-67
2023/03/08 08:46:17;;;;;;;33.50;19.33;;;;;;;;;;5135428;27;20204;-69
2023/03/08 08:48:45;;;;;;;36.45;22.27;;;;;;;;;;5135738;27;20583;-68
2023/03/08 08:51:13;;;;;;;32.78;20.45;;;;;;;;;;5136156;27;20191;-68
2023/03/08 08:53:42;;;;;;;34.38;18.98;;;;;;;;;;5135944;27;20198;-68
2023/03/08 08:56:11;;;;;;;30.23;19.50;;;;;;;;;;5136043;27;20196;-68
2023/03/08 08:58:38;;;;;;;35.53;21.58;;;;;;;;;;5135762;27;20189;-68
2023/03/08 09:01:05;;;;;;;32.20;20.77;;;;;;;;;;5136192;27;20301;-68
2023/03/08 09:03:32;;;;;;;31.35;18.85;;;;;;;;;;5135184;27;20309;-68
2023/03/08 09:06:01;;;;;;;25.40;16.90;;;;;;;;;;5135603;27;20584;-68
2023/03/08 09:08:28;;;;;;;28.23;18.10;;;;;;;;;;5135132;27;20277;-67
2023/03/08 09:10:55;;;;;;;30.67;18.25;;;;;;;;;;5135621;27;20202;-68
2023/03/08 09:13:23;;;;;;;26.00;16.20;;;;;;;;;;5135613;27;20187;-77
2023/03/08 09:15:50;;;;;;;29.25;16.60;;;;;;;;;;5135103;27;20230;-65
2023/03/08 09:18:17;;;;;;;27.65;17.20;;;;;;;;;;5134960;27;20191;-64
2023/03/08 09:20:45;;;;;;;27.77;17.83;;;;;;;;;;5135446;27;20246;-64
2023/03/08 09:23:13;;;;;;;29.05;18.63;;;;;;;;;;5135647;27;20187;-65
2023/03/08 09:25:40;;;;;;;29.85;19.85;;;;;;;;;;5134891;27;20292;-65
2023/03/08 09:28:08;;;;;;;26.58;17.02;;;;;;;;;;5134096;27;20194;-65
2023/03/08 09:30:36;;;;;;;29.42;16.35;;;;;;;;;;5135007;27;20536;-65
2023/03/08 09:33:03;;;;;;;25.38;16.25;;;;;;;;;;5135296;27;20195;-65
2023/03/08 09:35:30;;;;;;;34.58;19.45;;;;;;;;;;5134647;27;20259;-65
2023/03/08 09:37:59;;;;;;;30.67;18.52;;;;;;;;;;5135255;27;20646;-64
2023/03/08 09:40:28;;;;;;;27.50;18.80;;;;;;;;;;5134488;27;20198;-64
2023/03/08 09:42:58;;;;;;;26.10;16.95;;;;;;;;;;5135013;27;20189;-64
2023/03/08 09:45:27;;;;;;;24.00;15.63;;;;;;;;;;5134417;27;20217;-64
2023/03/08 09:48:03;;;;;;;20.73;15.63;;;;;;;;;;5134916;27;20188;-64
2023/03/08 09:50:35;;;;;;;23.23;15.30;;;;;;;;;;5134407;27;20227;-64
2023/03/08 09:53:05;;;;;;;23.00;13.95;;;;;;;;;;5134791;27;20272;-64
2023/03/08 09:55:35;;;;;;;20.10;13.15;;;;;;;;;;5134991;27;20190;-64
2023/03/08 09:58:03;;;;;;;20.23;13.85;;;;;;;;;;5135259;27;20217;-66
2023/03/08 10:00:32;;;;;;;17.00;11.32;;;;;;;;;;5134116;27;20591;-64
2023/03/08 10:03:09;;;;;;;18.98;11.48;;;;;;;;;;5134378;27;20198;-65
2023/03/08 10:05:37;;;;;;;17.35;12.30;;;;;;;;;;5134239;27;20206;-66
2023/03/08 10:08:10;;;;;;;23.73;11.75;;;;;;;;;;5134016;27;20551;-66
2023/03/08 10:10:43;;;;;;;16.40;11.85;;;;;;;;;;5134136;27;20187;-65
2023/03/08 10:13:26;;;;;;;15.65;11.00;;;;;;;;;;5134219;27;20198;-64
2023/03/08 10:15:58;;;;;;;16.58;10.82;;;;;;;;;;5133667;27;20231;-64
2023/03/08 10:18:29;;;;;;;15.27;11.02;;;;;;;;;;5133934;27;20185;-64
2023/03/08 10:20:57;;;;;;;16.95;12.20;;;;;;;;;;5134188;27;20608;-64
2023/03/08 10:23:26;;;;;;;18.67;11.10;;;;;;;;;;5133960;27;20690;-64
2023/03/08 10:25:55;;;;;;;15.95;11.75;;;;;;;;;;5134073;27;20216;-64
2023/03/08 10:28:24;;;;;;;21.35;12.60;;;;;;;;;;5133841;27;20281;-66
2023/03/08 10:30:52;;;;;;;16.98;12.10;;;;;;;;;;5134029;27;20191;-64
2023/03/08 10:33:23;;;;;;;20.20;12.02;;;;;;;;;;5134051;27;20195;-64
2023/03/08 10:35:57;;;;;;;14.77;11.05;;;;;;;;;;5134262;27;20484;-65
2023/03/08 10:38:26;;;;;;;15.27;10.20;;;;;;;;;;5133706;27;20376;-64
2023/03/08 10:41:01;;;;;;;17.27;11.38;;;;;;;;;;5133922;27;20289;-65
2023/03/08 10:43:28;;;;;;;14.60;11.43;;;;;;;;;;5134090;27;20189;-64
2023/03/08 10:46:00;;;;;;;18.27;11.35;;;;;;;;;;5133397;27;20668;-65
2023/03/08 10:48:27;;;;;;;16.48;12.55;;;;;;;;;;5133451;27;20196;-65
2023/03/08 10:51:01;;;;;;;17.58;11.55;;;;;;;;;;5133811;27;20195;-65
2023/03/08 10:53:29;;;;;;;18.35;11.60;;;;;;;;;;5133749;27;20646;-65
2023/03/08 10:55:57;;;;;;;13.30;9.75;;;;;;;;;;5132974;27;20563;-67
2023/03/08 10:58:29;;;;;;;15.02;10.77;;;;;;;;;;5133180;27;20247;-65
2023/03/08 11:00:57;;;;;;;15.38;11.77;;;;;;;;;;5133196;27;20232;-65
2023/03/08 11:03:26;;;;;;;12.02;10.30;;;;;;;;;;5133040;28;20225;-65
2023/03/08 11:05:57;;;;;;;12.38;9.65;;;;;;;;;;5133032;28;20217;-67
2023/03/08 11:08:26;;;;;;;16.17;9.82;;;;;;;;;;5132055;28;20695;-66
2023/03/08 11:11:06;;;;;;;14.90;10.13;;;;;;;;;;5133586;28;20244;-66
2023/03/08 11:13:36;;;;;;;12.05;8.80;;;;;;;;;;5133182;28;20198;-67
2023/03/08 11:16:12;;;;;;;9.23;7.30;;;;;;;;;;5133475;28;20239;-72
2023/03/08 11:18:47;;;;;;;10.57;8.43;;;;;;;;;;5133211;28;20190;-66
2023/03/08 11:21:17;;;;;;;7.82;6.45;;;;;;;;;;5133080;28;20611;-66
2023/03/08 11:23:46;;;;;;;8.38;6.70;;;;;;;;;;5133849;28;20213;-66
2023/03/08 11:26:16;;;;;;;8.10;6.85;;;;;;;;;;5133146;28;20532;-66
2023/03/08 11:29:03;;;;;;;7.22;6.53;;;;;;;;;;5133209;28;20523;-68
2023/03/08 11:31:37;;;;;;;6.10;5.50;;;;;;;;;;5129835;27;20194;-69
2023/03/08 11:34:25;;;;;;;7.55;5.90;;;;;;;;;;5133756;28;20278;-66
2023/03/08 11:36:56;;;;;;;7.90;5.55;;;;;;;;;;5125974;28;20190;-66
2023/03/08 11:39:27;;;;;;;7.22;5.45;;;;;;;;;;5132870;28;20175;-67
2023/03/08 11:41:57;;;;;;;4.28;3.88;;;;;;;;;;5133125;28;20184;-66
2023/03/08 11:44:38;;;;;;;5.65;4.20;;;;;;;;;;5132890;28;20194;-67
2023/03/08 11:47:19;;;;;;;8.07;4.28;;;;;;;;;;5132754;28;20180;-66
2023/03/08 11:49:51;;;;;;;5.10;4.32;;;;;;;;;;5133190;27;20189;-66
2023/03/08 11:52:27;;;;;;;7.03;4.65;;;;;;;;;;5136750;27;20183;-67
2023/03/08 11:55:00;;;;;;;5.40;4.13;;;;;;;;;;5137162;27;20293;-66
2023/03/08 11:57:29;;;;;;;5.07;4.57;;;;;;;;;;5136997;27;20269;-66
2023/03/08 11:59:59;;;;;;;5.63;5.05;;;;;;;;;;5137068;27;20200;-66
2023/03/08 12:02:29;;;;;;;7.00;5.18;;;;;;;;;;5136804;27;20580;-66
2023/03/08 12:05:00;;;;;;;6.30;5.70;;;;;;;;;;5136773;27;20568;-66
2023/03/08 12:07:29;;;;;;;5.75;4.80;;;;;;;;;;5136807;27;20187;-66
2023/03/08 12:09:59;;;;;;;6.25;5.07;;;;;;;;;;5136596;27;20197;-66
2023/03/08 12:12:29;;;;;;;7.28;5.18;;;;;;;;;;5137029;27;20188;-66
2023/03/08 12:14:58;;;;;;;5.05;4.53;;;;;;;;;;5137068;27;20183;-66
2023/03/08 12:17:29;;;;;;;5.50;4.68;;;;;;;;;;5136633;27;20215;-67
2023/03/08 12:19:56;;;;;;;5.47;4.63;;;;;;;;;;5136442;27;20183;-67
2023/03/08 12:22:32;;;;;;;4.40;4.00;;;;;;;;;;5136601;27;20201;-66
2023/03/08 12:25:04;;;;;;;5.05;4.30;;;;;;;;;;5136781;27;20293;-66
2023/03/08 12:27:36;;;;;;;7.72;4.80;;;;;;;;;;5136628;27;20249;-66
2023/03/08 12:30:07;;;;;;;5.43;4.90;;;;;;;;;;5136740;27;20202;-68
2023/03/08 12:32:37;;;;;;;4.85;4.40;;;;;;;;;;5136510;27;20183;-66
2023/03/08 12:35:06;;;;;;;6.00;4.80;;;;;;;;;;5136161;27;20205;-66
2023/03/08 12:37:34;;;;;;;5.72;4.13;;;;;;;;;;5136562;27;20187;-66
2023/03/08 12:40:04;;;;;;;5.93;4.50;;;;;;;;;;5136419;27;20198;-66
2023/03/08 12:42:33;;;;;;;7.63;4.38;;;;;;;;;;5136360;27;20225;-66
2023/03/08 12:45:25;;;;;;;6.53;5.07;;;;;;;;;;5135919;27;20191;-67
2023/03/08 12:47:57;;;;;;;6.07;4.93;;;;;;;;;;5115915;27;20207;-67
2023/03/08 12:50:25;;;;;;;6.03;5.32;;;;;;;;;;5136816;27;20255;-68
2023/03/08 12:52:52;;;;;;;5.32;4.82;;;;;;;;;;5135893;27;20195;-68
2023/03/08 12:55:21;;;;;;;8.05;5.45;;;;;;;;;;5136671;27;20221;-68
2023/03/08 12:57:49;;;;;;;4.88;4.47;;;;;;;;;;5135640;27;20230;-68
2023/03/08 13:00:27;;;;;;;5.57;4.88;;;;;;;;;;5135767;27;20195;-68
2023/03/08 13:03:03;;;;;;;6.88;5.80;;;;;;;;;;5135795;27;20541;-68
2023/03/08 13:05:32;;;;;;;7.70;5.70;;;;;;;;;;5136172;27;20314;-68
2023/03/08 13:08:23;;;;;;;6.22;5.63;;;;;;;;;;5136089;27;20198;-68
2023/03/08 13:10:57;;;;;;;6.72;5.30;;;;;;;;;;5115477;27;20277;-68
2023/03/08 13:13:29;;;;;;;5.32;4.80;;;;;;;;;;5135032;27;20527;-68
2023/03/08 13:16:05;;;;;;;4.43;3.90;;;;;;;;;;5136008;27;20190;-73
2023/03/08 13:18:35;;;;;;;4.32;3.63;;;;;;;;;;5135533;27;20522;-70
2023/03/08 13:21:15;;;;;;;4.85;3.70;;;;;;;;;;5135493;27;20182;-68
2023/03/08 13:23:44;;;;;;;5.13;3.83;;;;;;;;;;5135662;27;20530;-67
2023/03/08 13:26:30;;;;;;;3.75;3.38;;;;;;;;;;5133119;27;20219;-69
2023/03/08 13:28:57;;;;;;;5.70;3.90;;;;;;;;;;5124144;27;20195;-68
2023/03/08 13:31:27;;;;;;;5.38;3.28;;;;;;;;;;5134346;27;20198;-69
2023/03/08 13:33:57;;;;;;;5.05;3.55;;;;;;;;;;5134827;27;20217;-69
2023/03/08 13:36:24;;;;;;;4.20;3.40;;;;;;;;;;5134777;27;20205;-69
2023/03/08 13:38:59;;;;;;;4.00;3.65;;;;;;;;;;5134655;27;20190;-68
2023/03/08 13:41:33;;;;;;;4.03;3.63;;;;;;;;;;5134766;27;20277;-68
2023/03/08 13:44:01;;;;;;;4.07;3.25;;;;;;;;;;5134907;27;20636;-68
2023/03/08 13:46:28;;;;;;;5.40;3.60;;;;;;;;;;5134992;27;20215;-69
2023/03/08 13:48:57;;;;;;;4.30;3.90;;;;;;;;;;5134525;27;20663;-68
2023/03/08 13:51:26;;;;;;;4.68;3.42;;;;;;;;;;5134618;27;20743;-69
2023/03/08 13:53:53;;;;;;;4.30;3.47;;;;;;;;;;5134912;27;20186;-68
2023/03/08 13:56:22;;;;;;;4.15;3.75;;;;;;;;;;5134686;27;20198;-68
2023/03/08 13:58:51;;;;;;;8.98;5.15;;;;;;;;;;5133973;27;20201;-67
2023/03/08 14:01:21;;;;;;;3.75;3.40;;;;;;;;;;5134815;27;20202;-68
2023/03/08 14:03:49;;;;;;;4.03;3.70;;;;;;;;;;5134536;27;20256;-68
2023/03/08 14:06:22;;;;;;;3.72;3.45;;;;;;;;;;5133827;27;20217;-68
2023/03/08 14:08:50;;;;;;;3.22;2.92;;;;;;;;;;5133637;27;20183;-68
2023/03/08 14:11:18;;;;;;;3.60;3.30;;;;;;;;;;5134696;27;20280;-68
2023/03/08 14:13:46;;;;;;;4.35;3.70;;;;;;;;;;5133722;27;20190;-68
2023/03/08 14:16:24;;;;;;;4.70;4.20;;;;;;;;;;5134089;27;20201;-68
2023/03/08 14:18:51;;;;;;;4.38;3.83;;;;;;;;;;5133576;27;20637;-68
2023/03/08 14:21:20;;;;;;;4.88;4.10;;;;;;;;;;5133962;27;20199;-68
2023/03/08 14:23:49;;;;;;;4.15;3.75;;;;;;;;;;5134033;27;20192;-68
2023/03/08 14:26:24;;;;;;;3.95;3.47;;;;;;;;;;5133831;27;20218;-68
2023/03/08 14:29:02;;;;;;;3.75;3.45;;;;;;;;;;5134142;27;20197;-68
2023/03/08 14:31:30;;;;;;;4.30;3.72;;;;;;;;;;5133894;27;20650;-68
2023/03/08 14:33:58;;;;;;;3.83;3.53;;;;;;;;;;5133584;27;20284;-68